Time;durP1;ratioP1;P1;durP2;ratioP2;P2;SDS_P1;SDS_P2;PMS_P1;PMS_P2;Temp;Humidity;BMP_temperature;BMP_pressure;BME280_temperature;BME280_humidity;BME280_pressure;Samples;Min_cycle;Max_cycle;Signal;HPM_P1;HPM_P2
2023/06/24 00:02:08;;;;;;;10.50;5.70;;;23.90;74.10;;;;;;4950903;28;20506;-41
2023/06/24 00:04:34;;;;;;;18.90;6.07;;;23.90;74.30;;;;;;4950268;28;20573;-41
2023/06/24 00:07:00;;;;;;;13.40;6.40;;;24.00;73.90;;;;;;4951249;28;20078;-41
2023/06/24 00:09:27;;;;;;;11.52;5.50;;;24.00;73.80;;;;;;4928203;29;20042;-42
2023/06/24 00:11:54;;;;;;;22.90;6.35;;;24.00;73.90;;;;;;4943337;28;20024;-41
2023/06/24 00:14:21;;;;;;;11.15;6.50;;;24.00;74.20;;;;;;4943989;29;20035;-42
2023/06/24 00:16:51;;;;;;;15.98;6.75;;;24.00;74.10;;;;;;4943398;28;20019;-42
2023/06/24 00:19:27;;;;;;;11.95;6.60;;;23.90;74.10;;;;;;4942201;28;20082;-43
2023/06/24 00:21:53;;;;;;;18.98;6.70;;;23.90;74.00;;;;;;4930120;28;20616;-41
2023/06/24 00:24:21;;;;;;;15.15;6.70;;;24.00;73.70;;;;;;4944341;28;20034;-50
2023/06/24 00:26:47;;;;;;;16.85;7.43;;;23.90;73.90;;;;;;4950869;28;20055;-50
2023/06/24 00:29:13;;;;;;;15.43;6.82;;;23.90;73.80;;;;;;4951762;28;20047;-45
2023/06/24 00:31:39;;;;;;;22.02;7.68;;;23.90;73.80;;;;;;4951789;28;20027;-48
2023/06/24 00:34:05;;;;;;;12.90;6.90;;;23.90;73.80;;;;;;4951908;28;20506;-47
2023/06/24 00:36:35;;;;;;;13.27;6.95;;;23.90;73.70;;;;;;4951924;28;20030;-45
2023/06/24 00:39:03;;;;;;;14.63;6.80;;;23.90;73.70;;;;;;4951991;28;20077;-46
2023/06/24 00:41:33;;;;;;;14.85;7.50;;;23.90;73.70;;;;;;4933945;29;20450;-44
2023/06/24 00:44:00;;;;;;;17.42;7.05;;;23.90;73.60;;;;;;4951885;28;20019;-47
2023/06/24 00:46:27;;;;;;;13.70;7.38;;;23.90;73.70;;;;;;4946555;28;20027;-44
2023/06/24 00:48:55;;;;;;;11.90;7.55;;;23.90;73.50;;;;;;4951085;28;20380;-44
2023/06/24 00:51:26;;;;;;;13.10;7.35;;;23.80;73.50;;;;;;4935420;29;20098;-46
2023/06/24 00:53:58;;;;;;;12.15;6.60;;;23.90;73.50;;;;;;4932659;28;20436;-43
2023/06/24 00:56:34;;;;;;;19.10;7.43;;;23.90;73.60;;;;;;4938324;29;20027;-41
2023/06/24 00:59:02;;;;;;;13.15;7.38;;;23.90;73.30;;;;;;4955727;28;20019;-43
2023/06/24 01:01:35;;;;;;;14.80;7.03;;;23.90;73.10;;;;;;4938827;29;20480;-42
2023/06/24 01:04:03;;;;;;;12.10;6.85;;;23.90;73.20;;;;;;4938506;29;20492;-43
2023/06/24 01:06:30;;;;;;;13.80;6.72;;;23.90;73.10;;;;;;4955775;28;20513;-42
2023/06/24 01:08:57;;;;;;;14.43;7.13;;;23.90;73.10;;;;;;4955662;28;20041;-43
2023/06/24 01:11:24;;;;;;;11.15;6.90;;;23.90;72.90;;;;;;4938545;29;20059;-41
2023/06/24 01:13:50;;;;;;;10.90;7.20;;;23.90;72.90;;;;;;4938223;28;20570;-42
2023/06/24 01:16:37;;;;;;;11.10;7.20;;;23.90;72.90;;;;;;4938538;29;20360;-41
2023/06/24 01:19:38;;;;;;;15.10;7.20;;;23.90;72.90;;;;;;4955755;28;20019;-41
2023/06/24 01:22:30;;;;;;;11.40;7.32;;;23.90;72.70;;;;;;4938431;29;20027;-42
2023/06/24 01:24:59;;;;;;;14.10;7.13;;;23.80;72.70;;;;;;4955186;28;20393;-41
2023/06/24 01:27:56;;;;;;;11.73;7.05;;;23.90;72.80;;;;;;4938185;29;20126;-41
2023/06/24 01:30:52;;;;;;;10.95;7.22;;;23.80;72.60;;;;;;4955480;28;20078;-42
2023/06/24 01:33:43;;;;;;;11.55;7.28;;;23.80;72.50;;;;;;4939655;28;20115;-41
2023/06/24 01:36:12;;;;;;;9.95;7.07;;;23.90;73.00;;;;;;4947292;28;20035;-45
2023/06/24 01:38:46;;;;;;;12.05;7.15;;;23.90;72.50;;;;;;4952789;28;20015;-42
2023/06/24 01:41:15;;;;;;;14.25;7.38;;;23.80;72.40;;;;;;4954667;28;20019;-42
2023/06/24 01:43:43;;;;;;;10.07;6.68;;;23.80;72.40;;;;;;4954242;28;20110;-43
2023/06/24 01:46:11;;;;;;;11.98;6.88;;;23.80;72.40;;;;;;4954832;28;20129;-41
2023/06/24 01:48:40;;;;;;;10.20;6.53;;;23.80;72.30;;;;;;4936834;28;20162;-45
2023/06/24 01:51:17;;;;;;;11.25;6.57;;;23.80;72.30;;;;;;4947819;28;20027;-41
2023/06/24 01:53:48;;;;;;;12.13;6.97;;;23.80;72.80;;;;;;4933386;28;20518;-45
2023/06/24 01:56:15;;;;;;;11.30;6.72;;;23.80;72.20;;;;;;4954520;28;20074;-41
2023/06/24 01:58:43;;;;;;;11.68;7.32;;;23.80;72.30;;;;;;4953830;28;20475;-43
2023/06/24 02:01:09;;;;;;;11.68;6.22;;;23.80;72.10;;;;;;4937266;29;20024;-41
2023/06/24 02:03:36;;;;;;;11.82;6.57;;;23.80;72.20;;;;;;4952225;28;20027;-41
2023/06/24 02:06:06;;;;;;;11.95;7.00;;;23.80;72.10;;;;;;4937241;28;20027;-41
2023/06/24 02:08:34;;;;;;;11.18;6.65;;;23.80;72.10;;;;;;4953550;28;20063;-41
2023/06/24 02:11:01;;;;;;;11.20;6.63;;;23.80;72.00;;;;;;4951708;28;20047;-41
2023/06/24 02:13:32;;;;;;;10.80;6.78;;;23.80;71.90;;;;;;4937032;29;20043;-41
2023/06/24 02:16:00;;;;;;;11.32;7.22;;;23.80;72.00;;;;;;4930095;28;20020;-41
2023/06/24 02:18:27;;;;;;;13.48;6.18;;;23.80;71.60;;;;;;4952533;28;20491;-41
2023/06/24 02:20:56;;;;;;;12.25;6.45;;;23.80;71.60;;;;;;4946759;28;20551;-43
2023/06/24 02:23:23;;;;;;;9.38;6.38;;;23.80;71.60;;;;;;4954602;28;20031;-41
2023/06/24 02:25:50;;;;;;;11.13;6.50;;;23.80;71.60;;;;;;4952374;28;20479;-44
2023/06/24 02:28:17;;;;;;;9.15;6.30;;;23.80;71.90;;;;;;4936466;29;20038;-41
2023/06/24 02:30:43;;;;;;;11.18;6.35;;;23.80;71.50;;;;;;4954351;28;20039;-42
2023/06/24 02:33:11;;;;;;;8.93;6.40;;;23.80;72.00;;;;;;4955118;28;20082;-41
2023/06/24 02:35:38;;;;;;;11.45;7.05;;;23.80;71.20;;;;;;4934164;28;20038;-42
2023/06/24 02:38:04;;;;;;;10.85;6.40;;;23.80;71.90;;;;;;4949450;28;20057;-41
2023/06/24 02:40:30;;;;;;;8.35;5.82;;;23.80;71.10;;;;;;4954460;28;20476;-44
2023/06/24 02:42:57;;;;;;;12.20;6.45;;;23.70;71.00;;;;;;4936318;28;20030;-44
2023/06/24 02:45:23;;;;;;;8.93;5.43;;;23.80;71.10;;;;;;4949009;28;20024;-44
2023/06/24 02:47:49;;;;;;;9.50;5.90;;;23.80;71.70;;;;;;4936124;28;20042;-43
2023/06/24 02:50:17;;;;;;;9.40;6.20;;;23.80;71.00;;;;;;4931787;29;20611;-48
2023/06/24 02:52:44;;;;;;;8.80;6.03;;;23.70;70.60;;;;;;4936404;28;20027;-42
2023/06/24 02:55:14;;;;;;;11.57;6.88;;;23.80;70.90;;;;;;4936639;29;20136;-45
2023/06/24 02:57:47;;;;;;;10.98;5.90;;;23.70;71.10;;;;;;4934431;28;20415;-45
2023/06/24 03:00:33;;;;;;;13.90;6.30;;;23.70;70.60;;;;;;4943447;28;20422;-42
2023/06/24 03:03:09;;;;;;;13.50;6.40;;;23.70;70.90;;;;;;4947831;28;20066;-45
2023/06/24 03:05:41;;;;;;;10.02;6.15;;;23.80;70.30;;;;;;4931667;28;20024;-47
2023/06/24 03:08:07;;;;;;;9.38;6.40;;;23.70;70.60;;;;;;4951206;28;20488;-45
2023/06/24 03:10:37;;;;;;;13.50;6.18;;;23.70;70.20;;;;;;4935625;29;20030;-42
2023/06/24 03:13:04;;;;;;;10.00;6.30;;;23.70;70.40;;;;;;4945181;28;20101;-46
2023/06/24 03:15:38;;;;;;;9.45;6.55;;;23.70;70.20;;;;;;4936380;28;20384;-49
2023/06/24 03:18:05;;;;;;;10.82;6.22;;;23.70;69.90;;;;;;4919771;29;20035;-43
2023/06/24 03:20:38;;;;;;;10.52;5.95;;;23.70;70.00;;;;;;4934976;29;20027;-46
2023/06/24 03:23:06;;;;;;;14.50;5.72;;;23.70;70.10;;;;;;4932837;29;20437;-47
2023/06/24 03:25:33;;;;;;;11.85;6.25;;;23.70;70.60;;;;;;4936201;29;20396;-44
2023/06/24 03:28:00;;;;;;;10.18;6.18;;;23.70;69.90;;;;;;4935089;28;20102;-42
2023/06/24 03:30:27;;;;;;;10.98;5.95;;;23.70;69.90;;;;;;4952063;28;20027;-45
2023/06/24 03:32:55;;;;;;;11.80;5.97;;;23.70;69.70;;;;;;4932109;28;20037;-46
2023/06/24 03:35:22;;;;;;;9.90;6.47;;;23.70;69.70;;;;;;4935592;29;20078;-42
2023/06/24 03:37:49;;;;;;;9.35;5.78;;;23.70;69.70;;;;;;4935325;28;20031;-46
2023/06/24 03:40:14;;;;;;;8.32;5.38;;;23.70;70.30;;;;;;4953240;28;20025;-43
2023/06/24 03:42:40;;;;;;;12.77;6.45;;;23.70;69.40;;;;;;4951812;28;20488;-41
2023/06/24 03:45:07;;;;;;;11.40;5.50;;;23.70;69.70;;;;;;4935966;29;20027;-43
2023/06/24 03:47:32;;;;;;;10.20;5.60;;;23.70;69.40;;;;;;4934622;29;20030;-46
2023/06/24 03:49:59;;;;;;;7.45;5.95;;;23.70;69.20;;;;;;4934893;28;20034;-41
2023/06/24 03:52:25;;;;;;;13.00;6.47;;;23.70;69.30;;;;;;4935902;29;20031;-41
2023/06/24 03:54:51;;;;;;;9.73;5.75;;;23.70;69.00;;;;;;4935575;28;20338;-42
2023/06/24 03:57:17;;;;;;;10.98;6.43;;;23.70;69.20;;;;;;4952179;28;20110;-41
2023/06/24 03:59:43;;;;;;;11.25;6.55;;;23.70;69.10;;;;;;4951386;28;20036;-46
2023/06/24 04:02:09;;;;;;;10.75;6.20;;;23.70;69.00;;;;;;4952484;28;20317;-41
2023/06/24 04:04:36;;;;;;;9.63;6.15;;;23.70;68.90;;;;;;4948309;28;20551;-42
2023/06/24 04:07:05;;;;;;;9.93;6.15;;;23.70;69.20;;;;;;4943336;28;20031;-43
2023/06/24 04:09:35;;;;;;;14.35;6.38;;;23.60;69.10;;;;;;4952169;28;20130;-45
2023/06/24 04:12:01;;;;;;;10.05;5.95;;;23.60;69.10;;;;;;4951607;28;20046;-44
2023/06/24 04:14:33;;;;;;;10.05;5.72;;;23.70;69.10;;;;;;4934975;29;20440;-45
2023/06/24 04:16:59;;;;;;;9.52;5.95;;;23.60;68.80;;;;;;4952219;28;20028;-43
2023/06/24 04:19:24;;;;;;;10.10;5.97;;;23.60;69.10;;;;;;4933249;29;20027;-48
2023/06/24 04:21:50;;;;;;;10.57;5.78;;;23.60;68.70;;;;;;4948249;28;20030;-45
2023/06/24 04:24:16;;;;;;;11.43;6.22;;;23.60;68.90;;;;;;4952785;28;20546;-47
2023/06/24 04:26:42;;;;;;;10.32;6.10;;;23.60;68.90;;;;;;4951952;28;20067;-43
2023/06/24 04:29:07;;;;;;;12.55;6.13;;;23.60;68.70;;;;;;4934875;28;20034;-41
2023/06/24 04:31:33;;;;;;;8.35;5.68;;;23.60;69.00;;;;;;4956151;28;20039;-41
2023/06/24 04:33:59;;;;;;;10.20;6.38;;;23.60;68.60;;;;;;4959719;28;20058;-41
2023/06/24 04:36:25;;;;;;;11.63;6.15;;;23.60;68.80;;;;;;4951836;28;20098;-41
2023/06/24 04:38:50;;;;;;;9.25;5.90;;;23.60;68.70;;;;;;4934202;28;20034;-41
2023/06/24 04:41:18;;;;;;;10.02;5.80;;;23.60;69.20;;;;;;4936813;29;20031;-41
2023/06/24 04:43:44;;;;;;;10.80;6.05;;;23.60;68.50;;;;;;4963491;28;20027;-41
2023/06/24 04:46:10;;;;;;;7.57;5.28;;;23.60;68.50;;;;;;4960131;28;20488;-41
2023/06/24 04:48:36;;;;;;;11.25;6.50;;;23.60;68.60;;;;;;4954833;28;20035;-41
2023/06/24 04:51:01;;;;;;;9.57;5.85;;;23.60;68.50;;;;;;4951220;28;20154;-41
2023/06/24 04:53:27;;;;;;;6.93;5.43;;;23.60;68.50;;;;;;4955938;28;20073;-41
2023/06/24 04:55:53;;;;;;;9.13;5.15;;;23.60;68.60;;;;;;4954829;28;20055;-41
2023/06/24 04:58:19;;;;;;;10.30;5.55;;;23.60;68.70;;;;;;4959037;28;20022;-47
2023/06/24 05:00:44;;;;;;;9.93;5.50;;;23.60;68.40;;;;;;4957696;28;20023;-48
2023/06/24 05:03:10;;;;;;;12.27;5.43;;;23.60;68.50;;;;;;4952546;28;20023;-48
2023/06/24 05:05:36;;;;;;;12.55;5.63;;;23.60;68.50;;;;;;4955949;28;20029;-44
2023/06/24 05:08:02;;;;;;;9.57;5.75;;;23.60;68.20;;;;;;4949179;28;20026;-44
2023/06/24 05:10:27;;;;;;;9.13;6.13;;;23.60;68.20;;;;;;4952021;28;20036;-44
2023/06/24 05:12:53;;;;;;;11.40;5.15;;;23.60;68.30;;;;;;4953958;28;20027;-46
2023/06/24 05:15:19;;;;;;;9.02;5.63;;;23.60;68.20;;;;;;4954911;28;20041;-46
2023/06/24 05:17:45;;;;;;;13.40;5.53;;;23.60;68.10;;;;;;4954953;28;20078;-44
2023/06/24 05:20:11;;;;;;;7.22;5.22;;;23.70;68.20;;;;;;4950135;28;20027;-44
2023/06/24 05:22:37;;;;;;;9.45;5.43;;;23.60;68.30;;;;;;4955413;28;20031;-44
2023/06/24 05:25:03;;;;;;;9.60;5.60;;;23.60;68.10;;;;;;4955519;28;20023;-44
2023/06/24 05:27:29;;;;;;;8.80;5.50;;;23.60;68.10;;;;;;4937483;29;20035;-45
2023/06/24 05:29:54;;;;;;;9.45;5.10;;;23.60;68.30;;;;;;4937621;28;20114;-41
2023/06/24 05:32:20;;;;;;;12.13;6.55;;;23.60;68.30;;;;;;4951670;28;20106;-45
2023/06/24 05:34:51;;;;;;;10.60;6.10;;;23.60;68.40;;;;;;4938996;28;20489;-41
2023/06/24 05:37:17;;;;;;;10.48;5.70;;;23.60;68.10;;;;;;4950261;28;20062;-52
2023/06/24 05:39:43;;;;;;;9.07;5.47;;;23.60;68.20;;;;;;4946368;28;20050;-55
2023/06/24 05:42:08;;;;;;;11.57;5.60;;;23.60;68.20;;;;;;4954551;28;20475;-51
2023/06/24 05:44:34;;;;;;;10.55;5.32;;;23.60;68.20;;;;;;4955191;29;20023;-50
2023/06/24 05:47:00;;;;;;;8.57;5.63;;;23.60;68.40;;;;;;4952867;28;20047;-47
2023/06/24 05:49:26;;;;;;;9.65;5.40;;;23.60;68.50;;;;;;4954617;29;20039;-52
2023/06/24 05:51:52;;;;;;;9.77;5.35;;;23.60;68.30;;;;;;4954181;29;20529;-51
2023/06/24 05:54:17;;;;;;;8.30;4.97;;;23.60;68.40;;;;;;4954858;28;20115;-49
2023/06/24 05:56:43;;;;;;;11.30;5.70;;;23.60;68.50;;;;;;4956619;28;20399;-55
2023/06/24 05:59:09;;;;;;;8.73;5.43;;;23.60;68.40;;;;;;4954923;28;20027;-54
2023/06/24 06:01:35;;;;;;;7.90;5.00;;;23.60;68.50;;;;;;4954063;28;20047;-49
2023/06/24 06:04:01;;;;;;;10.80;5.35;;;23.60;68.30;;;;;;4957962;28;20019;-49
2023/06/24 06:06:26;;;;;;;9.30;5.63;;;23.60;68.40;;;;;;4957717;28;20061;-49
2023/06/24 06:08:52;;;;;;;8.07;5.22;;;23.60;68.30;;;;;;4953534;28;20050;-51
2023/06/24 06:11:18;;;;;;;7.97;5.32;;;23.60;68.50;;;;;;4962994;28;20027;-53
2023/06/24 06:13:44;;;;;;;13.75;5.75;;;23.60;68.30;;;;;;4955406;28;20039;-51
2023/06/24 06:16:09;;;;;;;7.63;5.10;;;23.60;68.50;;;;;;4955674;28;20480;-48
2023/06/24 06:18:35;;;;;;;14.75;6.03;;;23.60;68.60;;;;;;4953635;28;20019;-53
2023/06/24 06:21:01;;;;;;;13.70;5.28;;;23.70;68.30;;;;;;4955170;28;20027;-46
2023/06/24 06:23:27;;;;;;;9.25;4.80;;;23.70;68.50;;;;;;4954681;28;20030;-48
2023/06/24 06:25:53;;;;;;;20.00;5.57;;;23.70;68.60;;;;;;4953381;28;20059;-48
2023/06/24 06:28:18;;;;;;;10.30;5.78;;;23.60;68.40;;;;;;4953949;28;20598;-49
2023/06/24 06:30:44;;;;;;;10.80;6.00;;;23.70;68.20;;;;;;4963442;28;20026;-50
2023/06/24 06:33:10;;;;;;;14.15;5.72;;;23.60;68.00;;;;;;4955954;28;20098;-53
2023/06/24 06:35:36;;;;;;;10.45;5.20;;;23.70;68.40;;;;;;4952809;28;20435;-54
2023/06/24 06:38:01;;;;;;;10.82;5.70;;;23.70;68.50;;;;;;4954282;28;20031;-52
2023/06/24 06:40:28;;;;;;;15.27;5.68;;;23.70;68.90;;;;;;4959245;28;20019;-56
2023/06/24 06:42:54;;;;;;;13.20;5.45;;;23.70;68.60;;;;;;4953785;28;20027;-56
2023/06/24 06:45:20;;;;;;;24.60;6.90;;;23.70;68.40;;;;;;4955020;28;20034;-56
2023/06/24 06:47:47;;;;;;;16.48;7.05;;;23.70;69.70;;;;;;4953554;28;20023;-54
2023/06/24 06:50:13;;;;;;;16.73;7.65;;;23.80;69.20;;;;;;4952799;29;20057;-56
2023/06/24 06:52:39;;;;;;;20.73;6.80;;;23.70;68.80;;;;;;4952804;28;20487;-55
2023/06/24 06:55:05;;;;;;;10.60;5.70;;;23.80;69.00;;;;;;4951125;28;20031;-56
2023/06/24 06:57:31;;;;;;;21.05;5.82;;;23.80;68.10;;;;;;4953372;28;20055;-56
2023/06/24 06:59:57;;;;;;;13.93;5.93;;;23.70;67.50;;;;;;4953920;28;20031;-50
2023/06/24 07:02:23;;;;;;;13.38;7.10;;;23.70;67.10;;;;;;4954240;29;20033;-53
2023/06/24 07:04:50;;;;;;;11.93;5.93;;;23.70;67.00;;;;;;4954028;28;20027;-55
2023/06/24 07:07:17;;;;;;;14.43;5.53;;;23.70;66.90;;;;;;4954010;29;20039;-56
2023/06/24 07:09:42;;;;;;;17.42;6.00;;;23.70;66.90;;;;;;4954086;29;20023;-55
2023/06/24 07:12:08;;;;;;;9.73;5.30;;;23.70;66.90;;;;;;4954189;29;20394;-52
2023/06/24 07:14:34;;;;;;;8.88;5.07;;;23.70;66.90;;;;;;4953845;28;20131;-55
2023/06/24 07:17:00;;;;;;;17.23;5.13;;;23.70;66.50;;;;;;4953717;28;20110;-56
2023/06/24 07:19:26;;;;;;;13.05;5.50;;;23.70;66.20;;;;;;4953973;29;20039;-55
2023/06/24 07:21:52;;;;;;;11.65;5.78;;;23.70;66.20;;;;;;4953943;29;20031;-55
2023/06/24 07:24:18;;;;;;;9.32;5.53;;;23.70;65.90;;;;;;4953881;29;20031;-54
2023/06/24 07:26:44;;;;;;;10.63;5.05;;;23.70;65.60;;;;;;4953752;28;20155;-55
2023/06/24 07:29:09;;;;;;;6.57;4.85;;;23.70;65.30;;;;;;4953748;28;20490;-56
2023/06/24 07:31:36;;;;;;;9.73;4.80;;;23.70;65.60;;;;;;4953735;28;20031;-55
2023/06/24 07:34:02;;;;;;;10.38;4.97;;;23.70;65.50;;;;;;4953480;29;20043;-53
2023/06/24 07:36:28;;;;;;;14.35;5.82;;;23.70;65.60;;;;;;4953535;28;20106;-55
2023/06/24 07:38:53;;;;;;;9.82;5.07;;;23.70;65.20;;;;;;4953639;28;20490;-55
2023/06/24 07:41:19;;;;;;;9.05;4.82;;;23.70;65.20;;;;;;4953708;28;20024;-55
2023/06/24 07:43:45;;;;;;;8.98;5.10;;;23.70;65.00;;;;;;4953757;28;20035;-55
2023/06/24 07:46:11;;;;;;;13.50;5.20;;;23.70;64.80;;;;;;4953508;28;20050;-55
2023/06/24 07:48:37;;;;;;;10.77;5.28;;;23.70;64.90;;;;;;4953490;29;20035;-53
2023/06/24 07:51:02;;;;;;;13.10;4.60;;;23.70;64.80;;;;;;4953621;29;20114;-55
2023/06/24 07:53:28;;;;;;;8.93;5.03;;;23.70;64.60;;;;;;4953639;29;20093;-55
2023/06/24 07:55:54;;;;;;;8.23;4.50;;;23.70;64.70;;;;;;4965609;28;20030;-56
2023/06/24 07:58:20;;;;;;;11.20;4.53;;;23.70;66.10;;;;;;4953703;28;20395;-55
2023/06/24 08:00:46;;;;;;;10.80;5.55;;;23.70;65.90;;;;;;4960325;28;20445;-54
2023/06/24 08:03:12;;;;;;;9.65;4.60;;;23.80;66.00;;;;;;4958397;28;20031;-56
2023/06/24 08:05:41;;;;;;;15.23;5.28;;;23.70;65.80;;;;;;4977505;28;20022;-54
2023/06/24 08:08:08;;;;;;;12.20;4.38;;;23.80;65.60;;;;;;4968921;28;20446;-54
2023/06/24 08:10:34;;;;;;;9.80;4.68;;;23.80;66.20;;;;;;4967418;28;20077;-57
2023/06/24 08:13:00;;;;;;;12.52;4.82;;;23.70;66.10;;;;;;4965997;28;20035;-56
2023/06/24 08:15:25;;;;;;;9.35;4.53;;;23.80;65.90;;;;;;4968897;28;20023;-56
2023/06/24 08:17:55;;;;;;;10.68;4.50;;;23.80;65.90;;;;;;4955585;28;20031;-53
2023/06/24 08:20:21;;;;;;;9.95;4.32;;;23.80;65.60;;;;;;4955032;28;20031;-56
2023/06/24 08:22:47;;;;;;;12.68;4.70;;;23.90;65.70;;;;;;4954970;28;20019;-57
2023/06/24 08:25:47;;;;;;;8.90;5.32;;;23.90;65.90;;;;;;4954533;28;20078;-56
2023/06/24 08:31:53;;;;;;;12.38;5.47;;;23.90;65.90;;;;;;4947148;29;20114;-53
2023/06/24 08:34:18;;;;;;;8.93;5.70;;;23.90;66.20;;;;;;4948621;28;20031;-49
2023/06/24 08:36:44;;;;;;;10.85;5.18;;;23.90;65.70;;;;;;4954231;28;20031;-56
2023/06/24 08:39:10;;;;;;;11.82;4.65;;;23.90;65.90;;;;;;4954776;28;20019;-56
2023/06/24 08:41:36;;;;;;;10.13;4.72;;;23.90;66.10;;;;;;4953269;28;20066;-55
2023/06/24 08:44:02;;;;;;;14.48;4.97;;;23.90;66.00;;;;;;4954189;28;20023;-53
2023/06/24 08:46:29;;;;;;;8.57;5.07;;;23.90;66.00;;;;;;4954248;28;20066;-57
2023/06/24 08:49:10;;;;;;;10.77;4.95;;;23.90;66.60;;;;;;4953948;28;20035;-53
2023/06/24 08:51:43;;;;;;;7.82;4.75;;;23.90;65.90;;;;;;4953348;29;20070;-55
2023/06/24 08:54:10;;;;;;;9.88;4.72;;;23.90;65.90;;;;;;4953425;28;20027;-56
2023/06/24 08:56:40;;;;;;;12.35;4.57;;;24.00;65.70;;;;;;4952580;28;20028;-54
2023/06/24 08:59:06;;;;;;;7.15;4.53;;;23.90;65.40;;;;;;4936976;29;20023;-55
2023/06/24 09:01:32;;;;;;;10.65;5.78;;;24.00;66.10;;;;;;4954084;29;20054;-57
2023/06/24 09:03:58;;;;;;;9.20;4.90;;;24.00;65.10;;;;;;4920738;29;20035;-57
2023/06/24 09:06:24;;;;;;;9.45;5.03;;;23.60;60.70;;;;;;4954137;28;20034;-53
2023/06/24 09:08:56;;;;;;;9.70;5.65;;;23.30;61.70;;;;;;4953703;28;20560;-56
2023/06/24 09:11:23;;;;;;;10.57;5.10;;;23.30;60.80;;;;;;4953974;28;20027;-56
2023/06/24 09:13:58;;;;;;;8.02;4.57;;;23.40;61.60;;;;;;4953387;28;20031;-52
2023/06/24 09:16:24;;;;;;;10.45;5.07;;;23.40;59.30;;;;;;4953386;28;20498;-56
2023/06/24 09:18:52;;;;;;;10.43;4.82;;;23.30;59.60;;;;;;4953585;28;20050;-55
2023/06/24 09:21:27;;;;;;;11.75;5.32;;;23.20;59.00;;;;;;4953815;28;20098;-57
2023/06/24 09:23:54;;;;;;;8.00;4.72;;;23.30;60.50;;;;;;4953638;28;20043;-52
2023/06/24 09:26:26;;;;;;;10.00;5.35;;;23.30;60.10;;;;;;4953535;28;20494;-54
2023/06/24 09:28:52;;;;;;;10.50;5.05;;;23.40;59.70;;;;;;4953595;28;20114;-52
2023/06/24 09:31:19;;;;;;;11.18;5.43;;;23.40;59.20;;;;;;4953615;29;20070;-57
2023/06/24 09:33:46;;;;;;;9.25;4.65;;;23.30;58.70;;;;;;4953427;28;20042;-58
2023/06/24 09:36:16;;;;;;;8.48;4.50;;;23.40;59.50;;;;;;4953526;28;20239;-56
2023/06/24 09:38:46;;;;;;;13.45;4.53;;;23.30;58.70;;;;;;4953407;28;20465;-58
2023/06/24 09:41:13;;;;;;;7.45;4.07;;;23.30;58.30;;;;;;4953453;28;20023;-56
2023/06/24 09:43:42;;;;;;;8.10;4.32;;;23.30;56.40;;;;;;4953275;28;20383;-57
2023/06/24 09:46:08;;;;;;;6.43;4.25;;;23.20;56.70;;;;;;4952023;28;20039;-56
2023/06/24 09:48:35;;;;;;;6.60;4.00;;;23.10;56.10;;;;;;4953511;28;20027;-53
2023/06/24 09:51:03;;;;;;;10.40;3.90;;;23.20;56.90;;;;;;4951176;28;20443;-56
2023/06/24 09:53:34;;;;;;;12.35;4.68;;;23.30;57.10;;;;;;4935055;29;20035;-56
2023/06/24 09:56:03;;;;;;;7.07;4.25;;;23.40;57.80;;;;;;4950828;28;20373;-53
2023/06/24 09:58:32;;;;;;;9.60;4.25;;;23.40;57.30;;;;;;4953223;28;20376;-50
2023/06/24 10:01:03;;;;;;;12.32;4.57;;;23.50;57.80;;;;;;4952477;28;20487;-51
2023/06/24 10:03:32;;;;;;;11.32;4.38;;;23.60;57.80;;;;;;4952583;28;20077;-56
2023/06/24 10:05:59;;;;;;;8.38;4.05;;;23.60;58.20;;;;;;4952401;28;20027;-56
2023/06/24 10:08:26;;;;;;;10.68;4.50;;;23.70;58.20;;;;;;4952206;28;20035;-56
2023/06/24 10:10:52;;;;;;;12.00;5.13;;;23.70;58.70;;;;;;4953032;29;20155;-55
2023/06/24 10:13:18;;;;;;;13.23;5.18;;;23.70;59.00;;;;;;4952513;28;20059;-50
2023/06/24 10:15:45;;;;;;;13.30;4.80;;;23.80;59.20;;;;;;4950906;28;20034;-55
2023/06/24 10:18:33;;;;;;;17.92;6.18;;;23.80;59.20;;;;;;4952137;28;20034;-55
2023/06/24 10:20:59;;;;;;;14.43;5.13;;;23.80;59.40;;;;;;4950921;29;20106;-54
2023/06/24 10:23:47;;;;;;;21.25;5.75;;;23.90;59.50;;;;;;4952344;28;20114;-53
2023/06/24 10:26:29;;;;;;;18.52;5.72;;;23.80;59.70;;;;;;4945341;28;20671;-53
2023/06/24 10:29:08;;;;;;;23.23;6.63;;;23.90;59.70;;;;;;4951656;28;20028;-50
2023/06/24 10:31:43;;;;;;;31.80;7.50;;;23.90;59.80;;;;;;4952218;29;20510;-51
2023/06/24 10:34:37;;;;;;;35.17;9.63;;;23.90;60.10;;;;;;4950070;28;20322;-52
2023/06/24 10:37:08;;;;;;;50.22;11.90;;;23.90;60.50;;;;;;4947443;28;20031;-52
2023/06/24 10:40:05;;;;;;;31.65;9.63;;;23.90;60.60;;;;;;4950932;28;20043;-50
2023/06/24 10:42:42;;;;;;;39.75;10.38;;;23.90;60.70;;;;;;4942416;29;20243;-53
2023/06/24 10:45:18;;;;;;;39.40;10.05;;;23.90;60.80;;;;;;4944399;28;20038;-54
2023/06/24 10:47:47;;;;;;;33.00;9.73;;;23.90;60.80;;;;;;4951262;28;20036;-49
2023/06/24 10:50:20;;;;;;;39.03;10.93;;;23.90;61.00;;;;;;4951423;29;20554;-50
2023/06/24 10:52:48;;;;;;;38.85;10.73;;;23.90;61.10;;;;;;4952238;28;20062;-51
2023/06/24 10:55:18;;;;;;;32.22;9.25;;;23.90;61.20;;;;;;4951051;28;20507;-51
2023/06/24 10:57:45;;;;;;;38.33;11.48;;;23.90;61.10;;;;;;4950906;28;20058;-48
2023/06/24 11:00:12;;;;;;;37.15;10.35;;;23.90;61.40;;;;;;4951100;28;20015;-51
2023/06/24 11:02:38;;;;;;;38.40;10.93;;;23.90;61.30;;;;;;4951233;28;20102;-52
2023/06/24 11:05:05;;;;;;;37.30;10.95;;;23.90;61.60;;;;;;4951117;28;20115;-49
2023/06/24 11:07:34;;;;;;;34.58;9.73;;;23.90;61.70;;;;;;4951594;29;20027;-49
2023/06/24 11:10:05;;;;;;;39.43;11.63;;;23.90;61.50;;;;;;4951016;28;20588;-52
2023/06/24 11:12:33;;;;;;;40.28;10.85;;;23.90;61.60;;;;;;4950945;28;20279;-51
2023/06/24 11:15:01;;;;;;;34.92;10.63;;;23.90;61.60;;;;;;4950778;28;20295;-49
2023/06/24 11:17:27;;;;;;;38.78;11.45;;;23.90;61.90;;;;;;4949449;29;20072;-49
2023/06/24 11:19:54;;;;;;;40.92;11.45;;;23.90;61.90;;;;;;4951273;28;20030;-51
2023/06/24 11:22:21;;;;;;;38.00;11.15;;;23.90;62.00;;;;;;4950002;28;20023;-50
2023/06/24 11:24:47;;;;;;;38.65;10.85;;;23.90;62.10;;;;;;4950241;28;20035;-49
2023/06/24 11:27:12;;;;;;;33.28;10.88;;;23.90;62.20;;;;;;4950456;28;20146;-52
2023/06/24 11:29:39;;;;;;;39.58;12.63;;;23.90;62.20;;;;;;4950961;28;20043;-49
2023/06/24 11:32:09;;;;;;;39.85;11.10;;;23.90;62.30;;;;;;4955959;28;20554;-49
2023/06/24 11:34:36;;;;;;;41.47;13.15;;;23.90;62.50;;;;;;4956806;28;20666;-52
2023/06/24 11:37:12;;;;;;;43.72;13.40;;;23.90;62.50;;;;;;4954055;28;20031;-52
2023/06/24 11:39:38;;;;;;;43.15;14.38;;;24.00;62.60;;;;;;4987399;23;20050;-42
2023/06/24 11:42:06;;;;;;;39.03;11.02;;;24.00;62.60;;;;;;4972768;28;20027;-42
2023/06/24 11:44:32;;;;;;;33.15;11.40;;;24.00;62.60;;;;;;4965093;28;20030;-45
2023/06/24 11:47:08;;;;;;;34.75;11.40;;;24.00;62.90;;;;;;4970283;28;20276;-45
2023/06/24 11:49:55;;;;;;;35.88;9.77;;;24.00;62.70;;;;;;4973540;28;20420;-46
2023/06/24 11:52:43;;;;;;;40.05;10.38;;;24.00;62.80;;;;;;4970646;28;20116;-42
2023/06/24 11:55:18;;;;;;;13.05;4.90;;;24.00;63.30;;;;;;4970208;28;20038;-43
2023/06/24 11:58:01;;;;;;;8.25;4.10;;;23.80;53.10;;;;;;4970422;28;20019;-44
2023/06/24 12:00:28;;;;;;;7.95;4.00;;;23.50;52.40;;;;;;4970513;28;20026;-43
2023/06/24 12:03:02;;;;;;;9.38;3.58;;;23.40;54.70;;;;;;4970578;28;20235;-43
2023/06/24 12:05:32;;;;;;;11.82;4.68;;;23.30;52.70;;;;;;4970294;28;20112;-42
2023/06/24 12:08:09;;;;;;;9.07;3.78;;;23.50;56.70;;;;;;4970600;28;20124;-42
2023/06/24 12:10:36;;;;;;;10.20;4.22;;;23.40;53.60;;;;;;4970580;28;20027;-42
2023/06/24 12:13:04;;;;;;;8.52;4.05;;;23.40;56.70;;;;;;4970401;28;20034;-45
2023/06/24 12:15:30;;;;;;;6.05;3.70;;;23.40;53.50;;;;;;4970140;28;20398;-42
2023/06/24 12:17:56;;;;;;;6.43;3.75;;;23.40;53.50;;;;;;4970219;28;20035;-42
2023/06/24 12:20:24;;;;;;;7.72;4.30;;;23.50;55.40;;;;;;4970532;28;20030;-42
2023/06/24 12:22:50;;;;;;;4.72;3.70;;;23.50;54.80;;;;;;4969286;28;20030;-43
2023/06/24 12:25:17;;;;;;;6.70;4.00;;;23.50;52.90;;;;;;4970285;28;20027;-42
2023/06/24 12:27:44;;;;;;;7.22;4.07;;;23.40;53.90;;;;;;4970278;28;20023;-43
2023/06/24 12:30:11;;;;;;;7.00;3.83;;;23.50;54.90;;;;;;4970374;28;20406;-43
2023/06/24 12:32:37;;;;;;;8.85;4.25;;;23.50;53.50;;;;;;4970360;28;20034;-45
2023/06/24 12:35:04;;;;;;;7.00;3.85;;;23.30;53.70;;;;;;4970148;28;20030;-48
2023/06/24 12:37:32;;;;;;;8.70;3.67;;;23.40;55.70;;;;;;4970169;28;20023;-44
2023/06/24 12:39:58;;;;;;;6.70;3.80;;;23.40;53.30;;;;;;4967008;28;20127;-43
2023/06/24 12:42:25;;;;;;;7.30;3.88;;;23.40;54.20;;;;;;4969139;28;20023;-44
2023/06/24 12:44:50;;;;;;;6.13;3.70;;;23.50;54.00;;;;;;4969878;28;20038;-44
2023/06/24 12:47:16;;;;;;;9.48;4.20;;;23.40;54.00;;;;;;4969954;28;20027;-43
2023/06/24 12:49:42;;;;;;;9.52;3.50;;;23.40;53.20;;;;;;4969934;28;20027;-42